Udo Maru — JM6522 — position and weather

sailwx.info

Track history (hours):
 
Tides and Currents Weather Stations Pressure Air Temp Water Temp Dewpoint Dewpoint Depression Visibility Wind Speed Wind Dir Waves Ship Positions

Udo Maru

Last reported at 2014-Oct-31 21:31 UTC. Time now 2014-Nov-01 02:39 UTC.
Position N 33°60' E 134°60'.

Length 87 m; draft 4.9 m.

Type: Ship (hazmat cat A). MMSI: 431600499.

Date/timePositionNaut miles runAvg speedWind from/ knotsBaromVisibWave heightAir tempDewpointWater temp
2014-Oct-31 21:31N 33°60' E 134°60'1111.1
2014-Oct-31 20:33N 34°10' E 134°59'1211.3
2014-Oct-31 19:32N 34°22' E 134°59'1111.1
2014-Oct-31 18:33N 34°32' E 135°02'7 5.9
2014-Oct-31 17:22N 34°35' E 134°54'  
2014-Oct-28 20:05N 34°37' E 134°55'5 9.2
2014-Oct-28 19:31N 34°37' E 135°01'7 7.7
2014-Oct-28 18:33N 34°30' E 135°04'1110.5
2014-Oct-28 17:33N 34°20' E 135°01'1010.1
2014-Oct-28 16:33N 34°10' E 134°60'  
2014-Oct-23 19:13N 33°59' E 135°00'811.5
2014-Oct-23 18:33N 34°07' E 134°59'1312.7
2014-Oct-23 17:30N 34°20' E 134°59'1112.1
2014-Oct-23 16:33N 34°31' E 135°02'120 8.9
2014-Oct-23 03:03N 33°57' E 132°43'  
Track history (hours):
 
Tides and Currents Weather Stations Pressure Air Temp Water Temp Dewpoint Dewpoint Depression Visibility Wind Speed Wind Dir Waves Ship Positions

Udo Maru

Last reported at 2014-Oct-31 21:31 UTC. Time now 2014-Nov-01 02:39 UTC.
Position N 33°60' E 134°60'.

Length 87 m; draft 4.9 m.

Type: Ship (hazmat cat A). MMSI: 431600499.

Date/timePositionNaut miles runAvg speedWind from/ knotsBaromVisibWave heightAir tempDewpointWater temp
2014-Oct-31 21:31N 33°60' E 134°60'1111.1
2014-Oct-31 20:33N 34°10' E 134°59'1211.3
2014-Oct-31 19:32N 34°22' E 134°59'1111.1
2014-Oct-31 18:33N 34°32' E 135°02'7 5.9
2014-Oct-31 17:22N 34°35' E 134°54'  
2014-Oct-28 20:05N 34°37' E 134°55'5 9.2
2014-Oct-28 19:31N 34°37' E 135°01'7 7.7
2014-Oct-28 18:33N 34°30' E 135°04'1110.5
2014-Oct-28 17:33N 34°20' E 135°01'1010.1
2014-Oct-28 16:33N 34°10' E 134°60'  
2014-Oct-23 19:13N 33°59' E 135°00'811.5
2014-Oct-23 18:33N 34°07' E 134°59'1312.7
2014-Oct-23 17:30N 34°20' E 134°59'1112.1
2014-Oct-23 16:33N 34°31' E 135°02'120 8.9
2014-Oct-23 03:03N 33°57' E 132°43'  

Dump ship's entire track history